sensor_id;sensor_type;location;lat;lon;timestamp;pressure;altitude;pressure_sealevel;temperature;humidity
35553;BME280;21656;46.054;13.614;2022-12-07T07:11:20;100355.47;;;3.50;100.00
35553;BME280;21656;46.054;13.614;2022-12-07T07:13:45;100345.69;;;3.51;100.00
35553;BME280;21656;46.054;13.614;2022-12-07T07:16:11;100346.22;;;3.57;100.00
35553;BME280;21656;46.054;13.614;2022-12-07T07:18:37;100343.72;;;3.54;100.00
35553;BME280;21656;46.054;13.614;2022-12-07T07:21:02;100337.94;;;3.79;100.00
35553;BME280;21656;46.054;13.614;2022-12-07T07:23:28;100339.13;;;3.74;100.00
35553;BME280;21656;46.054;13.614;2022-12-07T07:25:53;100339.69;;;3.80;100.00
35553;BME280;21656;46.054;13.614;2022-12-07T07:28:19;100337.09;;;3.79;100.00
35553;BME280;21656;46.054;13.614;2022-12-07T07:30:45;100341.31;;;3.83;100.00
35553;BME280;21656;46.054;13.614;2022-12-07T07:33:11;100339.34;;;3.86;100.00
35553;BME280;21656;46.054;13.614;2022-12-07T07:35:36;100349.81;;;3.89;100.00
35553;BME280;21656;46.054;13.614;2022-12-07T07:38:03;100346.75;;;3.97;100.00
35553;BME280;21656;46.054;13.614;2022-12-07T07:40:29;100337.47;;;4.04;100.00
35553;BME280;21656;46.054;13.614;2022-12-07T07:42:55;100344.97;;;4.13;100.00
35553;BME280;21656;46.054;13.614;2022-12-07T07:45:23;100347.03;;;4.24;100.00
35553;BME280;21656;46.054;13.614;2022-12-07T07:47:49;100342.22;;;4.31;100.00
35553;BME280;21656;46.054;13.614;2022-12-07T07:50:16;100343.69;;;4.37;100.00
35553;BME280;21656;46.054;13.614;2022-12-07T07:52:41;100353.84;;;4.46;100.00
35553;BME280;21656;46.054;13.614;2022-12-07T07:55:07;100352.19;;;4.59;100.00
35553;BME280;21656;46.054;13.614;2022-12-07T07:57:37;100347.44;;;4.80;100.00
35553;BME280;21656;46.054;13.614;2022-12-07T08:00:08;100346.53;;;4.95;100.00
35553;BME280;21656;46.054;13.614;2022-12-07T08:02:34;100350.59;;;5.03;100.00
35553;BME280;21656;46.054;13.614;2022-12-07T08:05:00;100357.09;;;5.13;100.00
35553;BME280;21656;46.054;13.614;2022-12-07T08:07:27;100358.53;;;5.18;100.00
35553;BME280;21656;46.054;13.614;2022-12-07T08:09:53;100339.63;;;5.37;100.00
35553;BME280;21656;46.054;13.614;2022-12-07T08:12:18;100349.25;;;5.40;100.00
35553;BME280;21656;46.054;13.614;2022-12-07T08:14:43;100349.66;;;5.48;100.00
35553;BME280;21656;46.054;13.614;2022-12-07T08:17:18;100351.28;;;5.51;100.00
35553;BME280;21656;46.054;13.614;2022-12-07T08:19:44;100347.16;;;5.59;100.00
35553;BME280;21656;46.054;13.614;2022-12-07T08:22:09;100348.16;;;5.73;100.00
35553;BME280;21656;46.054;13.614;2022-12-07T08:24:35;100345.22;;;5.77;100.00
35553;BME280;21656;46.054;13.614;2022-12-07T08:27:02;100347.13;;;5.75;100.00
35553;BME280;21656;46.054;13.614;2022-12-07T08:29:27;100341.88;;;5.88;100.00
35553;BME280;21656;46.054;13.614;2022-12-07T08:31:52;100340.69;;;5.92;100.00
35553;BME280;21656;46.054;13.614;2022-12-07T08:34:18;100333.19;;;5.99;100.00
35553;BME280;21656;46.054;13.614;2022-12-07T08:36:43;100341.13;;;6.00;100.00
35553;BME280;21656;46.054;13.614;2022-12-07T08:39:09;100338.91;;;6.07;100.00
35553;BME280;21656;46.054;13.614;2022-12-07T08:41:34;100337.56;;;6.14;100.00
35553;BME280;21656;46.054;13.614;2022-12-07T08:44:00;100339.19;;;6.17;100.00
35553;BME280;21656;46.054;13.614;2022-12-07T08:49:04;100343.56;;;6.32;100.00
35553;BME280;21656;46.054;13.614;2022-12-07T08:51:31;100344.41;;;6.47;100.00
35553;BME280;21656;46.054;13.614;2022-12-07T08:53:58;100339.31;;;6.57;100.00
35553;BME280;21656;46.054;13.614;2022-12-07T08:56:25;100347.69;;;6.65;100.00
35553;BME280;21656;46.054;13.614;2022-12-07T08:58:51;100351.69;;;6.72;100.00
35553;BME280;21656;46.054;13.614;2022-12-07T09:01:17;100354.63;;;6.82;100.00
35553;BME280;21656;46.054;13.614;2022-12-07T09:03:43;100355.69;;;6.79;100.00
35553;BME280;21656;46.054;13.614;2022-12-07T09:06:08;100345.41;;;6.86;100.00
35553;BME280;21656;46.054;13.614;2022-12-07T09:08:40;100354.03;;;7.04;100.00
35553;BME280;21656;46.054;13.614;2022-12-07T09:11:07;100363.06;;;7.15;100.00
35553;BME280;21656;46.054;13.614;2022-12-07T09:13:33;100357.66;;;7.30;100.00
35553;BME280;21656;46.054;13.614;2022-12-07T09:15:58;100361.22;;;7.43;100.00
35553;BME280;21656;46.054;13.614;2022-12-07T09:18:23;100355.41;;;7.36;100.00
35553;BME280;21656;46.054;13.614;2022-12-07T09:20:50;100349.09;;;7.50;100.00
35553;BME280;21656;46.054;13.614;2022-12-07T09:23:15;100352.09;;;7.58;100.00
35553;BME280;21656;46.054;13.614;2022-12-07T09:25:41;100353.41;;;7.53;100.00
35553;BME280;21656;46.054;13.614;2022-12-07T09:28:06;100356.63;;;7.58;100.00
35553;BME280;21656;46.054;13.614;2022-12-07T09:30:32;100345.47;;;7.64;100.00
35553;BME280;21656;46.054;13.614;2022-12-07T09:32:57;100338.09;;;7.68;100.00
35553;BME280;21656;46.054;13.614;2022-12-07T09:35:24;100347.59;;;7.72;100.00
35553;BME280;21656;46.054;13.614;2022-12-07T09:37:50;100349.66;;;7.81;100.00
35553;BME280;21656;46.054;13.614;2022-12-07T09:40:16;100337.22;;;7.93;100.00
35553;BME280;21656;46.054;13.614;2022-12-07T09:42:45;100339.78;;;7.94;100.00
35553;BME280;21656;46.054;13.614;2022-12-07T09:45:38;100333.88;;;8.02;100.00
35553;BME280;21656;46.054;13.614;2022-12-07T09:48:04;100331.28;;;8.13;100.00
35553;BME280;21656;46.054;13.614;2022-12-07T09:50:30;100335.88;;;8.24;100.00
35553;BME280;21656;46.054;13.614;2022-12-07T09:53:08;100329.84;;;8.46;98.81
35553;BME280;21656;46.054;13.614;2022-12-07T09:55:37;100324.81;;;8.65;96.12
35553;BME280;21656;46.054;13.614;2022-12-07T09:58:03;100329.56;;;8.86;94.92
35553;BME280;21656;46.054;13.614;2022-12-07T10:00:29;100330.94;;;8.92;90.22
35553;BME280;21656;46.054;13.614;2022-12-07T10:02:55;100328.56;;;9.11;90.15
35553;BME280;21656;46.054;13.614;2022-12-07T10:07:54;100325.34;;;9.41;85.99
35553;BME280;21656;46.054;13.614;2022-12-07T10:10:30;100316.13;;;9.79;88.17
35553;BME280;21656;46.054;13.614;2022-12-07T10:13:05;100308.94;;;9.91;82.33
35553;BME280;21656;46.054;13.614;2022-12-07T10:15:53;100310.50;;;10.05;82.97
35553;BME280;21656;46.054;13.614;2022-12-07T10:21:16;100310.38;;;10.17;80.41
35553;BME280;21656;46.054;13.614;2022-12-07T10:26:34;100313.31;;;10.48;76.21
35553;BME280;21656;46.054;13.614;2022-12-07T10:29:24;100298.19;;;10.68;73.70
35553;BME280;21656;46.054;13.614;2022-12-07T10:31:55;100302.47;;;10.71;73.06
35553;BME280;21656;46.054;13.614;2022-12-07T10:34:23;100287.44;;;11.21;72.91
35553;BME280;21656;46.054;13.614;2022-12-07T10:36:50;100287.97;;;11.36;69.03
35553;BME280;21656;46.054;13.614;2022-12-07T10:39:24;100289.97;;;11.86;70.30
35553;BME280;21656;46.054;13.614;2022-12-07T10:42:02;100292.38;;;12.20;66.35
35553;BME280;21656;46.054;13.614;2022-12-07T10:44:32;100277.50;;;12.35;63.73
35553;BME280;21656;46.054;13.614;2022-12-07T10:47:17;100277.44;;;12.56;64.96
35553;BME280;21656;46.054;13.614;2022-12-07T11:03:47;100273.72;;;12.67;63.54
35553;BME280;21656;46.054;13.614;2022-12-07T11:11:43;100264.91;;;13.04;59.78
35553;BME280;21656;46.054;13.614;2022-12-07T11:14:35;100251.50;;;13.21;60.63
35553;BME280;21656;46.054;13.614;2022-12-07T11:19:53;100239.81;;;13.50;59.56
35553;BME280;21656;46.054;13.614;2022-12-07T11:25:32;100237.38;;;13.57;56.14
35553;BME280;21656;46.054;13.614;2022-12-07T11:28:41;100235.78;;;13.64;57.61
35553;BME280;21656;46.054;13.614;2022-12-07T11:36:22;100224.78;;;14.30;56.67
35553;BME280;21656;46.054;13.614;2022-12-07T11:39:01;100215.22;;;14.90;56.77
35553;BME280;21656;46.054;13.614;2022-12-07T11:41:35;100222.66;;;14.70;52.30
35553;BME280;21656;46.054;13.614;2022-12-07T11:57:58;100202.44;;;14.82;53.64
35553;BME280;21656;46.054;13.614;2022-12-07T12:00:28;100196.00;;;14.83;53.71
35553;BME280;21656;46.054;13.614;2022-12-07T12:03:05;100199.81;;;14.72;51.63
35553;BME280;21656;46.054;13.614;2022-12-07T12:05:34;100197.56;;;14.68;51.92
35553;BME280;21656;46.054;13.614;2022-12-07T12:08:05;100191.84;;;14.89;51.42
35553;BME280;21656;46.054;13.614;2022-12-07T12:16:45;100182.13;;;15.04;55.05
35553;BME280;21656;46.054;13.614;2022-12-07T12:21:47;100178.50;;;14.78;52.57
35553;BME280;21656;46.054;13.614;2022-12-07T12:24:23;100179.50;;;14.94;53.19
35553;BME280;21656;46.054;13.614;2022-12-07T12:27:05;100177.66;;;14.77;50.49
35553;BME280;21656;46.054;13.614;2022-12-07T12:29:35;100179.22;;;14.62;50.94
35553;BME280;21656;46.054;13.614;2022-12-07T12:32:20;100165.66;;;14.80;52.64
35553;BME280;21656;46.054;13.614;2022-12-07T12:37:47;100170.50;;;15.12;50.31
35553;BME280;21656;46.054;13.614;2022-12-07T12:42:50;100164.25;;;15.20;50.64
35553;BME280;21656;46.054;13.614;2022-12-07T12:45:34;100169.56;;;15.03;51.14
35553;BME280;21656;46.054;13.614;2022-12-07T12:50:44;100154.69;;;15.07;49.23
35553;BME280;21656;46.054;13.614;2022-12-07T12:53:15;100155.44;;;15.17;53.19
35553;BME280;21656;46.054;13.614;2022-12-07T12:56:11;100158.59;;;15.39;51.82
35553;BME280;21656;46.054;13.614;2022-12-07T12:58:44;100157.22;;;15.35;51.95
35553;BME280;21656;46.054;13.614;2022-12-07T13:04:02;100153.34;;;15.72;53.40
35553;BME280;21656;46.054;13.614;2022-12-07T13:06:35;100149.09;;;15.09;52.59
35553;BME280;21656;46.054;13.614;2022-12-07T13:09:03;100150.00;;;14.91;54.09
35553;BME280;21656;46.054;13.614;2022-12-07T13:11:37;100152.53;;;14.67;53.06
35553;BME280;21656;46.054;13.614;2022-12-07T13:14:51;100146.00;;;14.60;52.54
35553;BME280;21656;46.054;13.614;2022-12-07T13:20:02;100132.38;;;14.69;52.83
35553;BME280;21656;46.054;13.614;2022-12-07T13:27:41;100129.88;;;14.76;53.95
35553;BME280;21656;46.054;13.614;2022-12-07T13:30:18;100132.53;;;14.68;52.11
35553;BME280;21656;46.054;13.614;2022-12-07T13:32:52;100138.66;;;14.34;54.49
35553;BME280;21656;46.054;13.614;2022-12-07T13:35:34;100133.59;;;14.03;57.60
35553;BME280;21656;46.054;13.614;2022-12-07T13:38:05;100135.84;;;13.90;58.70
35553;BME280;21656;46.054;13.614;2022-12-07T13:40:31;100135.81;;;13.35;59.52
35553;BME280;21656;46.054;13.614;2022-12-07T13:43:04;100132.31;;;13.15;61.91
35553;BME280;21656;46.054;13.614;2022-12-07T13:45:38;100145.03;;;12.75;64.34
35553;BME280;21656;46.054;13.614;2022-12-07T13:48:35;100139.25;;;12.41;61.34
35553;BME280;21656;46.054;13.614;2022-12-07T13:51:03;100152.44;;;12.25;57.25
35553;BME280;21656;46.054;13.614;2022-12-07T13:53:30;100143.59;;;11.93;61.13
35553;BME280;21656;46.054;13.614;2022-12-07T13:56:00;100149.66;;;11.86;58.64
35553;BME280;21656;46.054;13.614;2022-12-07T13:58:29;100131.72;;;11.65;58.19
35553;BME280;21656;46.054;13.614;2022-12-07T14:00:56;100142.16;;;11.49;61.01
35553;BME280;21656;46.054;13.614;2022-12-07T14:03:31;100140.19;;;11.20;60.42
35553;BME280;21656;46.054;13.614;2022-12-07T14:06:21;100151.59;;;11.03;60.89
35553;BME280;21656;46.054;13.614;2022-12-07T14:08:49;100148.00;;;10.72;66.60
35553;BME280;21656;46.054;13.614;2022-12-07T14:11:19;100150.81;;;10.70;59.47
35553;BME280;21656;46.054;13.614;2022-12-07T14:16:29;100149.53;;;10.32;63.76
35553;BME280;21656;46.054;13.614;2022-12-07T14:19:00;100159.56;;;10.19;71.20
35553;BME280;21656;46.054;13.614;2022-12-07T14:21:31;100148.59;;;10.11;77.98
35553;BME280;21656;46.054;13.614;2022-12-07T14:24:15;100157.91;;;10.07;79.54
35553;BME280;21656;46.054;13.614;2022-12-07T14:26:41;100157.69;;;9.87;77.00
35553;BME280;21656;46.054;13.614;2022-12-07T14:29:31;100163.00;;;9.66;74.29
35553;BME280;21656;46.054;13.614;2022-12-07T14:34:39;100173.66;;;9.45;77.68
35553;BME280;21656;46.054;13.614;2022-12-07T14:37:08;100176.31;;;9.34;76.55
35553;BME280;21656;46.054;13.614;2022-12-07T14:39:34;100170.84;;;9.24;81.12
35553;BME280;21656;46.054;13.614;2022-12-07T14:42:00;100173.75;;;9.21;83.43
35553;BME280;21656;46.054;13.614;2022-12-07T14:44:25;100177.53;;;9.07;81.84
35553;BME280;21656;46.054;13.614;2022-12-07T14:46:51;100177.59;;;8.83;85.19
35553;BME280;21656;46.054;13.614;2022-12-07T14:49:17;100183.53;;;8.76;89.09
35553;BME280;21656;46.054;13.614;2022-12-07T14:51:45;100182.53;;;8.65;87.54
35553;BME280;21656;46.054;13.614;2022-12-07T14:54:16;100182.19;;;8.70;84.56
35553;BME280;21656;46.054;13.614;2022-12-07T14:56:43;100189.78;;;8.76;82.04
35553;BME280;21656;46.054;13.614;2022-12-07T14:59:10;100188.91;;;8.64;81.41
35553;BME280;21656;46.054;13.614;2022-12-07T15:01:36;100197.53;;;8.57;85.23
35553;BME280;21656;46.054;13.614;2022-12-07T15:04:01;100193.25;;;8.54;88.42
35553;BME280;21656;46.054;13.614;2022-12-07T15:06:28;100201.22;;;8.43;91.84
35553;BME280;21656;46.054;13.614;2022-12-07T15:08:53;100203.22;;;8.41;89.96
35553;BME280;21656;46.054;13.614;2022-12-07T15:11:47;100195.47;;;8.36;90.74
35553;BME280;21656;46.054;13.614;2022-12-07T15:14:13;100205.50;;;8.21;92.80
35553;BME280;21656;46.054;13.614;2022-12-07T15:16:40;100193.78;;;8.22;76.86
35553;BME280;21656;46.054;13.614;2022-12-07T15:19:13;100205.28;;;8.24;81.61
35553;BME280;21656;46.054;13.614;2022-12-07T15:21:39;100217.38;;;8.30;81.34
35553;BME280;21656;46.054;13.614;2022-12-07T15:24:07;100202.06;;;8.56;72.06
35553;BME280;21656;46.054;13.614;2022-12-07T15:26:33;100209.75;;;8.61;72.78
35553;BME280;21656;46.054;13.614;2022-12-07T15:28:58;100217.06;;;8.59;74.28
35553;BME280;21656;46.054;13.614;2022-12-07T15:31:24;100203.50;;;8.60;72.34
35553;BME280;21656;46.054;13.614;2022-12-07T15:33:49;100211.91;;;8.56;77.17
35553;BME280;21656;46.054;13.614;2022-12-07T15:36:21;100207.19;;;8.59;80.17
35553;BME280;21656;46.054;13.614;2022-12-07T15:38:47;100210.38;;;8.40;84.66
35553;BME280;21656;46.054;13.614;2022-12-07T15:41:12;100214.09;;;8.38;85.69
35553;BME280;21656;46.054;13.614;2022-12-07T15:43:38;100215.81;;;8.15;91.69
35553;BME280;21656;46.054;13.614;2022-12-07T15:46:22;100226.34;;;8.05;88.91
35553;BME280;21656;46.054;13.614;2022-12-07T15:48:47;100211.09;;;8.18;78.76
35553;BME280;21656;46.054;13.614;2022-12-07T15:51:13;100218.84;;;8.34;75.52
35553;BME280;21656;46.054;13.614;2022-12-07T15:53:38;100216.63;;;8.41;75.47
35553;BME280;21656;46.054;13.614;2022-12-07T15:56:07;100215.91;;;8.50;72.68
35553;BME280;21656;46.054;13.614;2022-12-07T15:58:33;100216.56;;;8.54;74.48
35553;BME280;21656;46.054;13.614;2022-12-07T16:00:59;100219.44;;;8.51;73.85
35553;BME280;21656;46.054;13.614;2022-12-07T16:03:24;100223.00;;;8.51;74.08
35553;BME280;21656;46.054;13.614;2022-12-07T16:05:52;100215.91;;;8.50;73.79
35553;BME280;21656;46.054;13.614;2022-12-07T16:08:18;100219.06;;;8.44;74.53
35553;BME280;21656;46.054;13.614;2022-12-07T16:10:44;100218.25;;;8.31;75.85
35553;BME280;21656;46.054;13.614;2022-12-07T16:13:10;100211.38;;;8.27;80.56
35553;BME280;21656;46.054;13.614;2022-12-07T16:15:40;100215.44;;;8.08;79.68
35553;BME280;21656;46.054;13.614;2022-12-07T16:18:05;100217.06;;;7.98;83.73
35553;BME280;21656;46.054;13.614;2022-12-07T16:20:33;100213.69;;;7.83;86.77
35553;BME280;21656;46.054;13.614;2022-12-07T16:22:58;100220.22;;;7.79;87.26
35553;BME280;21656;46.054;13.614;2022-12-07T16:25:24;100222.19;;;7.64;86.96
35553;BME280;21656;46.054;13.614;2022-12-07T16:27:50;100228.50;;;7.63;86.21
35553;BME280;21656;46.054;13.614;2022-12-07T16:30:16;100233.13;;;7.61;87.04
35553;BME280;21656;46.054;13.614;2022-12-07T16:32:42;100235.81;;;7.61;86.44
35553;BME280;21656;46.054;13.614;2022-12-07T16:35:08;100237.84;;;7.70;87.10
35553;BME280;21656;46.054;13.614;2022-12-07T16:37:34;100233.44;;;7.56;87.52
35553;BME280;21656;46.054;13.614;2022-12-07T16:39:59;100234.28;;;7.57;89.91
35553;BME280;21656;46.054;13.614;2022-12-07T16:42:25;100233.56;;;7.55;89.54
35553;BME280;21656;46.054;13.614;2022-12-07T16:44:52;100241.72;;;7.41;95.60
35553;BME280;21656;46.054;13.614;2022-12-07T16:47:17;100244.63;;;7.25;92.33
35553;BME280;21656;46.054;13.614;2022-12-07T16:49:45;100242.47;;;7.43;88.23
35553;BME280;21656;46.054;13.614;2022-12-07T16:52:11;100253.59;;;7.36;91.29
35553;BME280;21656;46.054;13.614;2022-12-07T16:54:36;100246.59;;;6.95;95.21
35553;BME280;21656;46.054;13.614;2022-12-07T16:57:02;100250.88;;;6.98;100.00
35553;BME280;21656;46.054;13.614;2022-12-07T16:59:27;100257.38;;;6.41;100.00
35553;BME280;21656;46.054;13.614;2022-12-07T17:01:52;100264.69;;;6.52;100.00
35553;BME280;21656;46.054;13.614;2022-12-07T17:04:18;100260.75;;;6.58;100.00
35553;BME280;21656;46.054;13.614;2022-12-07T17:06:43;100266.63;;;6.23;100.00
35553;BME280;21656;46.054;13.614;2022-12-07T17:09:09;100265.53;;;5.98;100.00
35553;BME280;21656;46.054;13.614;2022-12-07T17:11:36;100255.19;;;6.06;100.00
35553;BME280;21656;46.054;13.614;2022-12-07T17:14:02;100265.09;;;6.19;100.00
35553;BME280;21656;46.054;13.614;2022-12-07T17:16:46;100260.91;;;5.86;100.00
35553;BME280;21656;46.054;13.614;2022-12-07T17:19:13;100269.19;;;6.10;100.00
35553;BME280;21656;46.054;13.614;2022-12-07T17:21:39;100271.88;;;6.10;100.00
35553;BME280;21656;46.054;13.614;2022-12-07T17:24:08;100268.00;;;5.73;100.00
35553;BME280;21656;46.054;13.614;2022-12-07T17:26:34;100258.16;;;5.88;100.00
35553;BME280;21656;46.054;13.614;2022-12-07T17:29:00;100260.50;;;5.92;100.00
35553;BME280;21656;46.054;13.614;2022-12-07T17:31:25;100267.16;;;5.72;100.00
35553;BME280;21656;46.054;13.614;2022-12-07T17:33:51;100262.00;;;5.55;100.00
35553;BME280;21656;46.054;13.614;2022-12-07T17:36:22;100277.34;;;5.65;100.00
35553;BME280;21656;46.054;13.614;2022-12-07T17:38:49;100267.34;;;5.55;100.00
35553;BME280;21656;46.054;13.614;2022-12-07T17:41:21;100281.81;;;5.51;100.00
35553;BME280;21656;46.054;13.614;2022-12-07T17:44:08;100276.75;;;5.46;100.00
35553;BME280;21656;46.054;13.614;2022-12-07T17:46:35;100269.91;;;5.42;100.00
35553;BME280;21656;46.054;13.614;2022-12-07T17:49:02;100270.59;;;5.60;100.00
35553;BME280;21656;46.054;13.614;2022-12-07T17:51:28;100269.03;;;5.56;100.00
35553;BME280;21656;46.054;13.614;2022-12-07T17:54:12;100280.41;;;5.45;100.00
35553;BME280;21656;46.054;13.614;2022-12-07T17:56:39;100274.47;;;5.54;100.00
35553;BME280;21656;46.054;13.614;2022-12-07T17:59:06;100269.59;;;5.47;100.00
35553;BME280;21656;46.054;13.614;2022-12-07T18:01:33;100274.75;;;5.35;100.00
35553;BME280;21656;46.054;13.614;2022-12-07T18:04:00;100270.06;;;5.39;100.00
35553;BME280;21656;46.054;13.614;2022-12-07T18:06:26;100276.00;;;5.58;100.00
35553;BME280;21656;46.054;13.614;2022-12-07T18:08:51;100268.38;;;5.67;100.00
35553;BME280;21656;46.054;13.614;2022-12-07T18:11:18;100267.31;;;5.69;100.00
35553;BME280;21656;46.054;13.614;2022-12-07T18:13:43;100268.00;;;5.73;100.00
35553;BME280;21656;46.054;13.614;2022-12-07T18:16:12;100265.13;;;5.76;100.00
35553;BME280;21656;46.054;13.614;2022-12-07T18:18:39;100270.38;;;5.77;100.00
35553;BME280;21656;46.054;13.614;2022-12-07T18:21:14;100266.66;;;5.94;100.00
35553;BME280;21656;46.054;13.614;2022-12-07T18:23:42;100279.91;;;6.10;100.00
35553;BME280;21656;46.054;13.614;2022-12-07T18:26:08;100268.13;;;6.27;100.00
35553;BME280;21656;46.054;13.614;2022-12-07T18:28:34;100275.44;;;6.38;100.00
35553;BME280;21656;46.054;13.614;2022-12-07T18:31:00;100274.75;;;6.48;100.00
35553;BME280;21656;46.054;13.614;2022-12-07T18:33:27;100282.22;;;6.43;100.00
35553;BME280;21656;46.054;13.614;2022-12-07T18:35:52;100284.94;;;6.15;100.00
35553;BME280;21656;46.054;13.614;2022-12-07T18:38:18;100285.16;;;6.12;100.00
35553;BME280;21656;46.054;13.614;2022-12-07T18:40:44;100276.72;;;6.18;100.00
35553;BME280;21656;46.054;13.614;2022-12-07T18:43:11;100274.78;;;6.34;100.00
35553;BME280;21656;46.054;13.614;2022-12-07T18:45:37;100268.78;;;6.31;100.00
35553;BME280;21656;46.054;13.614;2022-12-07T18:48:04;100279.16;;;6.35;100.00
35553;BME280;21656;46.054;13.614;2022-12-07T18:50:30;100273.44;;;6.41;100.00
35553;BME280;21656;46.054;13.614;2022-12-07T18:52:57;100276.97;;;6.69;100.00
35553;BME280;21656;46.054;13.614;2022-12-07T18:55:24;100277.50;;;6.74;100.00
35553;BME280;21656;46.054;13.614;2022-12-07T18:57:51;100266.84;;;6.87;100.00
35553;BME280;21656;46.054;13.614;2022-12-07T19:00:18;100263.63;;;6.94;100.00
35553;BME280;21656;46.054;13.614;2022-12-07T19:02:43;100274.38;;;7.07;100.00
35553;BME280;21656;46.054;13.614;2022-12-07T19:05:09;100269.22;;;7.04;100.00
35553;BME280;21656;46.054;13.614;2022-12-07T19:07:35;100271.25;;;7.01;100.00
35553;BME280;21656;46.054;13.614;2022-12-07T19:10:01;100270.84;;;7.07;100.00
35553;BME280;21656;46.054;13.614;2022-12-07T19:12:26;100270.88;;;7.32;100.00
35553;BME280;21656;46.054;13.614;2022-12-07T19:14:52;100270.13;;;7.43;100.00
35553;BME280;21656;46.054;13.614;2022-12-07T19:17:19;100262.59;;;7.48;99.72
35553;BME280;21656;46.054;13.614;2022-12-07T19:19:46;100275.91;;;7.37;99.93
35553;BME280;21656;46.054;13.614;2022-12-07T19:22:14;100269.25;;;7.30;100.00
35553;BME280;21656;46.054;13.614;2022-12-07T19:24:41;100277.06;;;7.20;100.00
35553;BME280;21656;46.054;13.614;2022-12-07T19:27:08;100274.06;;;7.12;100.00
35553;BME280;21656;46.054;13.614;2022-12-07T19:29:34;100285.50;;;7.14;100.00
35553;BME280;21656;46.054;13.614;2022-12-07T19:32:01;100273.41;;;7.21;100.00
35553;BME280;21656;46.054;13.614;2022-12-07T19:34:27;100272.88;;;7.16;100.00
35553;BME280;21656;46.054;13.614;2022-12-07T19:36:52;100274.03;;;6.99;100.00
35553;BME280;21656;46.054;13.614;2022-12-07T19:39:18;100284.00;;;6.97;100.00
35553;BME280;21656;46.054;13.614;2022-12-07T19:41:44;100281.84;;;6.89;100.00
35553;BME280;21656;46.054;13.614;2022-12-07T19:44:18;100284.59;;;6.88;100.00
35553;BME280;21656;46.054;13.614;2022-12-07T19:46:46;100281.41;;;6.95;100.00
35553;BME280;21656;46.054;13.614;2022-12-07T19:49:13;100284.00;;;6.97;100.00
35553;BME280;21656;46.054;13.614;2022-12-07T19:51:43;100279.28;;;7.01;100.00
35553;BME280;21656;46.054;13.614;2022-12-07T19:54:11;100280.66;;;6.93;100.00
35553;BME280;21656;46.054;13.614;2022-12-07T19:56:37;100281.38;;;6.83;100.00
35553;BME280;21656;46.054;13.614;2022-12-07T19:59:02;100280.94;;;6.76;100.00
35553;BME280;21656;46.054;13.614;2022-12-07T20:01:28;100290.16;;;6.85;100.00
35553;BME280;21656;46.054;13.614;2022-12-07T20:03:55;100279.03;;;6.91;100.00
35553;BME280;21656;46.054;13.614;2022-12-07T20:06:21;100276.53;;;7.28;100.00
35553;BME280;21656;46.054;13.614;2022-12-07T20:08:47;100278.91;;;7.32;100.00
35553;BME280;21656;46.054;13.614;2022-12-07T20:11:14;100277.59;;;7.25;100.00
35553;BME280;21656;46.054;13.614;2022-12-07T20:13:59;100276.22;;;7.32;100.00
35553;BME280;21656;46.054;13.614;2022-12-07T20:16:25;100277.38;;;7.28;100.00
35553;BME280;21656;46.054;13.614;2022-12-07T20:18:51;100284.88;;;7.23;100.00
35553;BME280;21656;46.054;13.614;2022-12-07T20:21:17;100278.66;;;7.10;100.00
35553;BME280;21656;46.054;13.614;2022-12-07T20:23:42;100284.47;;;7.29;100.00
35553;BME280;21656;46.054;13.614;2022-12-07T20:26:09;100289.16;;;7.26;100.00
35553;BME280;21656;46.054;13.614;2022-12-07T20:28:35;100283.19;;;7.35;100.00
35553;BME280;21656;46.054;13.614;2022-12-07T20:31:01;100288.97;;;7.42;99.16
35553;BME280;21656;46.054;13.614;2022-12-07T20:33:27;100285.88;;;7.48;98.79
35553;BME280;21656;46.054;13.614;2022-12-07T20:36:03;100285.22;;;7.44;99.19
35553;BME280;21656;46.054;13.614;2022-12-07T20:38:30;100287.88;;;7.44;96.90
35553;BME280;21656;46.054;13.614;2022-12-07T20:41:07;100284.13;;;7.47;97.57
35553;BME280;21656;46.054;13.614;2022-12-07T20:43:53;100279.75;;;7.46;97.45
35553;BME280;21656;46.054;13.614;2022-12-07T20:46:18;100272.78;;;7.43;97.12
35553;BME280;21656;46.054;13.614;2022-12-07T20:48:45;100292.72;;;7.52;96.44
35553;BME280;21656;46.054;13.614;2022-12-07T20:51:10;100270.63;;;7.61;95.19
35553;BME280;21656;46.054;13.614;2022-12-07T20:53:36;100279.00;;;7.56;95.58
35553;BME280;21656;46.054;13.614;2022-12-07T20:56:01;100272.88;;;7.54;95.45
35553;BME280;21656;46.054;13.614;2022-12-07T20:58:26;100294.31;;;7.54;95.82
35553;BME280;21656;46.054;13.614;2022-12-07T21:00:52;100292.53;;;7.42;97.28
35553;BME280;21656;46.054;13.614;2022-12-07T21:03:23;100291.75;;;7.40;97.68
35553;BME280;21656;46.054;13.614;2022-12-07T21:05:49;100285.56;;;7.52;96.19
35553;BME280;21656;46.054;13.614;2022-12-07T21:08:14;100288.34;;;7.51;95.47
35553;BME280;21656;46.054;13.614;2022-12-07T21:10:39;100287.47;;;7.37;96.92
35553;BME280;21656;46.054;13.614;2022-12-07T21:13:05;100287.25;;;7.28;98.55
35553;BME280;21656;46.054;13.614;2022-12-07T21:15:30;100292.84;;;7.50;96.63
35553;BME280;21656;46.054;13.614;2022-12-07T21:17:55;100280.81;;;7.43;96.17
35553;BME280;21656;46.054;13.614;2022-12-07T21:20:21;100286.09;;;7.32;97.11
35553;BME280;21656;46.054;13.614;2022-12-07T21:22:46;100280.72;;;7.32;97.13
35553;BME280;21656;46.054;13.614;2022-12-07T21:25:11;100280.59;;;7.33;96.03
35553;BME280;21656;46.054;13.614;2022-12-07T21:27:37;100267.53;;;7.42;95.61
35553;BME280;21656;46.054;13.614;2022-12-07T21:30:03;100275.78;;;7.26;96.87